Marcell, Minnesota
Current Conditions -  °F | °C
As of 3:13 PM on Friday 24 Oct 2014 (Local Time) from KFOZ Reporting Station
Clear Clear  
Wind Chill: 72°   Ceiling: Unl
Heat Index: 72°   Visibility: 10mi
Dew Point: 41°   Wind: 12mph
Humidity: 33%   Direction: 220°SW
Pressure: 29.72"   Gusts: NA
Location:  47.59°N, 93.69°W
Report Text: KFOZ 242013Z AUTO 22010KT 10SM CLR 22/05 A2972 RMK AO2
Loading
Personal Weather Stations






























Interactive Weather Map
Tropical Storm Tracking
New forecast layout! Learn more

10-Day Weather Forecast

Advertisements
Track Severe Weather on mobile